TPC36 KTWF-KLGU
Flight info
| Callsign | TPC36 |
|---|---|
| Flight time | 0h 52m |
| Altitude | 11000 |
| Route | BYI V4 MLD HUSEM |
| Aircraft | C208/L-SDFGR/C |
Departure
| Time | 2026-05-04 12:15 |
|---|---|
| Airport | Joslin Field Magic Valley Regional Airport (KTWF) |
Arrival
| Time | 2026-05-04 13:08 |
|---|---|
| Airport | Logan-Cache Airport (KLGU) |
| Time | Latitude | Longitude | Altitude | Speed | Heading |
|---|---|---|---|---|---|
| 2026-05-04 11:55 | 42.48542 | -114.48918 | 4131 ft | 0 kts | 49° |
| 2026-05-04 12:06 | 42.48543 | -114.48917 | 4138 ft | 2 kts | 22° |
| 2026-05-04 12:07 | 42.48550 | -114.48921 | 4133 ft | 0 kts | 288° |
| 2026-05-04 12:07 | 42.48551 | -114.48931 | 4135 ft | 4 kts | 270° |
| 2026-05-04 12:07 | 42.48591 | -114.49003 | 4133 ft | 12 kts | 317° |
| 2026-05-04 12:07 | 42.48624 | -114.49085 | 4129 ft | 7 kts | 249° |
| 2026-05-04 12:08 | 42.48640 | -114.49131 | 4128 ft | 13 kts | 315° |
| 2026-05-04 12:08 | 42.48713 | -114.49226 | 4127 ft | 0 kts | 314° |
| 2026-05-04 12:08 | 42.48727 | -114.49218 | 4130 ft | 5 kts | 359° |
| 2026-05-04 12:08 | 42.48730 | -114.49224 | 4123 ft | 0 kts | 252° |
| 2026-05-04 12:14 | 42.48619 | -114.49226 | 4126 ft | 43 kts | 135° |
| 2026-05-04 12:15 | 42.48300 | -114.48809 | 4166 ft | 77 kts | 137° |
| 2026-05-04 12:15 | 42.47926 | -114.48271 | 4378 ft | 79 kts | 129° |
| 2026-05-04 12:15 | 42.47713 | -114.47519 | 4573 ft | 97 kts | 92° |
| 2026-05-04 12:15 | 42.47959 | -114.46601 | 4767 ft | 112 kts | 64° |
| 2026-05-04 12:16 | 42.48337 | -114.45717 | 5193 ft | 106 kts | 64° |
| 2026-05-04 12:16 | 42.48666 | -114.44839 | 5540 ft | 102 kts | 64° |
| 2026-05-04 12:16 | 42.49010 | -114.43999 | 5793 ft | 103 kts | 60° |
| 2026-05-04 12:16 | 42.49389 | -114.43189 | 6022 ft | 104 kts | 56° |
| 2026-05-04 12:17 | 42.49814 | -114.42393 | 6260 ft | 105 kts | 50° |
| 2026-05-04 12:17 | 42.50269 | -114.41644 | 6547 ft | 94 kts | 46° |
| 2026-05-04 12:17 | 42.50573 | -114.40920 | 6706 ft | 103 kts | 60° |
| 2026-05-04 12:17 | 42.50828 | -114.40018 | 6949 ft | 99 kts | 91° |
| 2026-05-04 12:18 | 42.50805 | -114.39111 | 7184 ft | 98 kts | 88° |
| 2026-05-04 12:18 | 42.50800 | -114.38480 | 7301 ft | 104 kts | 89° |
| 2026-05-04 12:18 | 42.50787 | -114.37451 | 7339 ft | 114 kts | 89° |
| 2026-05-04 12:18 | 42.50778 | -114.36341 | 7525 ft | 122 kts | 89° |
| 2026-05-04 12:19 | 42.50673 | -114.35164 | 7702 ft | 130 kts | 104° |
| 2026-05-04 12:19 | 42.50603 | -114.33932 | 7885 ft | 135 kts | 78° |
| 2026-05-04 12:19 | 42.50798 | -114.32670 | 8089 ft | 137 kts | 77° |
| 2026-05-04 12:19 | 42.50991 | -114.31401 | 8326 ft | 137 kts | 77° |
| 2026-05-04 12:20 | 42.51189 | -114.30135 | 8560 ft | 137 kts | 77° |
| 2026-05-04 12:20 | 42.51391 | -114.28866 | 8790 ft | 138 kts | 77° |
| 2026-05-04 12:20 | 42.51590 | -114.27608 | 9018 ft | 138 kts | 77° |
| 2026-05-04 12:20 | 42.51793 | -114.26334 | 9251 ft | 138 kts | 78° |
| 2026-05-04 12:21 | 42.51996 | -114.25059 | 9487 ft | 138 kts | 78° |
| 2026-05-04 12:21 | 42.52198 | -114.23785 | 9716 ft | 138 kts | 78° |
| 2026-05-04 12:21 | 42.52401 | -114.22508 | 9931 ft | 138 kts | 78° |
| 2026-05-04 12:21 | 42.52607 | -114.21213 | 10101 ft | 143 kts | 78° |
| 2026-05-04 12:22 | 42.52817 | -114.19879 | 10283 ft | 146 kts | 78° |
| 2026-05-04 12:22 | 42.53033 | -114.18516 | 10460 ft | 149 kts | 77° |
| 2026-05-04 12:22 | 42.53268 | -114.17132 | 10631 ft | 152 kts | 76° |
| 2026-05-04 12:22 | 42.53495 | -114.15723 | 10806 ft | 154 kts | 77° |
| 2026-05-04 12:23 | 42.53717 | -114.14276 | 10902 ft | 161 kts | 79° |
| 2026-05-04 12:23 | 42.53903 | -114.12732 | 10924 ft | 170 kts | 79° |
| 2026-05-04 12:23 | 42.54168 | -114.11135 | 10933 ft | 177 kts | 77° |
| 2026-05-04 12:23 | 42.54433 | -114.09489 | 10932 ft | 181 kts | 78° |
| 2026-05-04 12:24 | 42.54696 | -114.07824 | 10940 ft | 179 kts | 78° |
| 2026-05-04 12:24 | 42.54958 | -114.06181 | 10940 ft | 176 kts | 78° |
| 2026-05-04 12:24 | 42.55210 | -114.04595 | 10942 ft | 173 kts | 78° |
| 2026-05-04 12:24 | 42.55461 | -114.03008 | 10942 ft | 171 kts | 78° |
| 2026-05-04 12:25 | 42.55708 | -114.01438 | 10944 ft | 170 kts | 78° |
| 2026-05-04 12:25 | 42.55954 | -113.99870 | 10946 ft | 169 kts | 78° |
| 2026-05-04 12:25 | 42.56197 | -113.98314 | 10954 ft | 168 kts | 78° |
| 2026-05-04 12:25 | 42.56440 | -113.96766 | 10959 ft | 168 kts | 78° |
| 2026-05-04 12:26 | 42.56681 | -113.95220 | 10965 ft | 168 kts | 78° |
| 2026-05-04 12:26 | 42.56923 | -113.93670 | 10968 ft | 168 kts | 78° |
| 2026-05-04 12:26 | 42.57164 | -113.92124 | 10972 ft | 167 kts | 78° |
| 2026-05-04 12:26 | 42.57405 | -113.90579 | 10976 ft | 168 kts | 78° |
| 2026-05-04 12:27 | 42.57645 | -113.89032 | 10984 ft | 167 kts | 78° |
| 2026-05-04 12:27 | 42.57884 | -113.87488 | 10985 ft | 167 kts | 79° |
| 2026-05-04 12:27 | 42.57861 | -113.85944 | 10984 ft | 167 kts | 106° |
| 2026-05-04 12:27 | 42.57468 | -113.84469 | 10986 ft | 167 kts | 110° |
| 2026-05-04 12:28 | 42.57080 | -113.82980 | 10986 ft | 167 kts | 109° |
| 2026-05-04 12:28 | 42.56692 | -113.81489 | 10987 ft | 168 kts | 109° |
| 2026-05-04 12:28 | 42.56301 | -113.79992 | 10988 ft | 168 kts | 109° |
| 2026-05-04 12:28 | 42.55908 | -113.78494 | 10989 ft | 168 kts | 109° |
| 2026-05-04 12:29 | 42.55516 | -113.77000 | 10989 ft | 168 kts | 109° |
| 2026-05-04 12:29 | 42.55123 | -113.75503 | 10989 ft | 168 kts | 109° |
| 2026-05-04 12:29 | 42.54731 | -113.74006 | 10990 ft | 168 kts | 109° |
| 2026-05-04 12:29 | 42.54338 | -113.72511 | 10991 ft | 168 kts | 109° |
| 2026-05-04 12:30 | 42.53946 | -113.71017 | 10989 ft | 169 kts | 109° |
| 2026-05-04 12:30 | 42.53552 | -113.69520 | 10989 ft | 169 kts | 109° |
| 2026-05-04 12:30 | 42.53157 | -113.68018 | 10989 ft | 169 kts | 109° |
| 2026-05-04 12:30 | 42.52762 | -113.66519 | 10989 ft | 169 kts | 109° |
| 2026-05-04 12:31 | 42.52368 | -113.65019 | 10991 ft | 169 kts | 109° |
| 2026-05-04 12:31 | 42.51977 | -113.63540 | 10988 ft | 169 kts | 109° |
| 2026-05-04 12:31 | 42.51583 | -113.62042 | 10985 ft | 169 kts | 109° |
| 2026-05-04 12:31 | 42.51186 | -113.60540 | 10981 ft | 169 kts | 109° |
| 2026-05-04 12:32 | 42.50791 | -113.59045 | 10979 ft | 169 kts | 109° |
| 2026-05-04 12:32 | 42.49999 | -113.56051 | 10970 ft | 168 kts | 109° |
| 2026-05-04 12:32 | 42.49605 | -113.54561 | 10968 ft | 167 kts | 109° |
| 2026-05-04 12:33 | 42.49213 | -113.53078 | 10965 ft | 167 kts | 109° |
| 2026-05-04 12:33 | 42.48821 | -113.51597 | 10971 ft | 167 kts | 109° |
| 2026-05-04 12:33 | 42.48429 | -113.50118 | 10957 ft | 167 kts | 109° |
| 2026-05-04 12:33 | 42.48043 | -113.48660 | 10965 ft | 166 kts | 109° |
| 2026-05-04 12:34 | 42.47647 | -113.47167 | 10949 ft | 166 kts | 109° |
| 2026-05-04 12:34 | 42.47260 | -113.45710 | 10946 ft | 166 kts | 109° |
| 2026-05-04 12:34 | 42.46868 | -113.44237 | 10943 ft | 167 kts | 109° |
| 2026-05-04 12:34 | 42.46470 | -113.42742 | 10920 ft | 166 kts | 109° |
| 2026-05-04 12:35 | 42.46082 | -113.41277 | 10909 ft | 168 kts | 109° |
| 2026-05-04 12:35 | 42.45686 | -113.39788 | 10909 ft | 168 kts | 109° |
| 2026-05-04 12:35 | 42.45289 | -113.38296 | 10909 ft | 169 kts | 109° |
| 2026-05-04 12:35 | 42.44888 | -113.36795 | 10909 ft | 169 kts | 109° |
| 2026-05-04 12:36 | 42.44487 | -113.35293 | 10915 ft | 169 kts | 109° |
| 2026-05-04 12:36 | 42.44087 | -113.33796 | 10916 ft | 169 kts | 109° |
| 2026-05-04 12:36 | 42.43688 | -113.32295 | 10916 ft | 170 kts | 109° |
| 2026-05-04 12:36 | 42.43285 | -113.30792 | 10917 ft | 169 kts | 109° |
| 2026-05-04 12:37 | 42.42890 | -113.29311 | 10917 ft | 169 kts | 109° |
| 2026-05-04 12:37 | 42.42483 | -113.27791 | 10917 ft | 169 kts | 109° |
| 2026-05-04 12:37 | 42.42087 | -113.26312 | 10910 ft | 170 kts | 109° |
| 2026-05-04 12:37 | 42.41686 | -113.24813 | 10906 ft | 170 kts | 109° |
| 2026-05-04 12:38 | 42.41284 | -113.23311 | 10904 ft | 170 kts | 109° |
| 2026-05-04 12:38 | 42.40881 | -113.21807 | 10903 ft | 170 kts | 109° |
| 2026-05-04 12:38 | 42.40477 | -113.20304 | 10905 ft | 170 kts | 109° |
| 2026-05-04 12:38 | 42.40074 | -113.18804 | 10904 ft | 170 kts | 109° |
| 2026-05-04 12:39 | 42.39671 | -113.17302 | 10901 ft | 170 kts | 109° |
| 2026-05-04 12:39 | 42.39267 | -113.15800 | 10908 ft | 170 kts | 109° |
| 2026-05-04 12:39 | 42.38864 | -113.14302 | 10901 ft | 169 kts | 109° |
| 2026-05-04 12:39 | 42.38460 | -113.12799 | 10900 ft | 170 kts | 109° |
| 2026-05-04 12:40 | 42.38056 | -113.11301 | 10916 ft | 170 kts | 109° |
| 2026-05-04 12:40 | 42.37650 | -113.09792 | 10885 ft | 170 kts | 109° |
| 2026-05-04 12:40 | 42.37246 | -113.08291 | 10885 ft | 171 kts | 109° |
| 2026-05-04 12:40 | 42.36836 | -113.06777 | 10885 ft | 171 kts | 109° |
| 2026-05-04 12:41 | 42.36436 | -113.05291 | 10886 ft | 171 kts | 109° |
| 2026-05-04 12:41 | 42.36029 | -113.03784 | 10886 ft | 171 kts | 109° |
| 2026-05-04 12:41 | 42.35620 | -113.02278 | 10886 ft | 171 kts | 109° |
| 2026-05-04 12:41 | 42.35211 | -113.00761 | 10886 ft | 172 kts | 110° |
| 2026-05-04 12:42 | 42.34801 | -112.99244 | 10886 ft | 172 kts | 110° |
| 2026-05-04 12:42 | 42.34389 | -112.97724 | 10887 ft | 172 kts | 109° |
| 2026-05-04 12:42 | 42.33978 | -112.96202 | 10875 ft | 172 kts | 109° |
| 2026-05-04 12:42 | 42.33565 | -112.94685 | 10875 ft | 172 kts | 110° |
| 2026-05-04 12:43 | 42.33155 | -112.93176 | 10916 ft | 169 kts | 109° |
| 2026-05-04 12:43 | 42.32761 | -112.91707 | 10993 ft | 166 kts | 109° |
| 2026-05-04 12:43 | 42.32358 | -112.90225 | 10992 ft | 169 kts | 110° |
| 2026-05-04 12:43 | 42.31950 | -112.88731 | 10992 ft | 170 kts | 110° |
| 2026-05-04 12:44 | 42.31540 | -112.87229 | 10994 ft | 171 kts | 110° |
| 2026-05-04 12:44 | 42.31130 | -112.85721 | 10996 ft | 171 kts | 110° |
| 2026-05-04 12:44 | 42.30720 | -112.84214 | 10988 ft | 171 kts | 110° |
| 2026-05-04 12:44 | 42.30309 | -112.82705 | 10988 ft | 171 kts | 110° |
| 2026-05-04 12:45 | 42.29897 | -112.81194 | 10992 ft | 171 kts | 110° |
| 2026-05-04 12:45 | 42.29489 | -112.79701 | 10992 ft | 171 kts | 110° |
| 2026-05-04 12:45 | 42.29078 | -112.78192 | 10996 ft | 171 kts | 110° |
| 2026-05-04 12:45 | 42.28665 | -112.76676 | 10995 ft | 172 kts | 110° |
| 2026-05-04 12:46 | 42.28249 | -112.75160 | 10995 ft | 172 kts | 110° |
| 2026-05-04 12:46 | 42.27835 | -112.73644 | 10995 ft | 172 kts | 110° |
| 2026-05-04 12:46 | 42.27420 | -112.72128 | 10994 ft | 172 kts | 110° |
| 2026-05-04 12:46 | 42.27005 | -112.70612 | 11004 ft | 172 kts | 110° |
| 2026-05-04 12:47 | 42.26590 | -112.69097 | 11004 ft | 172 kts | 110° |
| 2026-05-04 12:47 | 42.26175 | -112.67582 | 11004 ft | 172 kts | 110° |
| 2026-05-04 12:47 | 42.25759 | -112.66065 | 11003 ft | 172 kts | 110° |
| 2026-05-04 12:47 | 42.25344 | -112.64552 | 11002 ft | 172 kts | 110° |
| 2026-05-04 12:48 | 42.24928 | -112.63037 | 11002 ft | 172 kts | 110° |
| 2026-05-04 12:48 | 42.24513 | -112.61528 | 11007 ft | 172 kts | 110° |
| 2026-05-04 12:48 | 42.24103 | -112.60035 | 11007 ft | 172 kts | 110° |
| 2026-05-04 12:48 | 42.23688 | -112.58528 | 11016 ft | 172 kts | 110° |
| 2026-05-04 12:49 | 42.23271 | -112.57013 | 11012 ft | 172 kts | 110° |
| 2026-05-04 12:49 | 42.22854 | -112.55499 | 11014 ft | 172 kts | 110° |
| 2026-05-04 12:49 | 42.22436 | -112.53985 | 11014 ft | 172 kts | 110° |
| 2026-05-04 12:49 | 42.22018 | -112.52468 | 11012 ft | 172 kts | 110° |
| 2026-05-04 12:50 | 42.21600 | -112.50952 | 11014 ft | 172 kts | 110° |
| 2026-05-04 12:50 | 42.21180 | -112.49432 | 11014 ft | 172 kts | 110° |
| 2026-05-04 12:50 | 42.20763 | -112.47917 | 11013 ft | 173 kts | 110° |
| 2026-05-04 12:50 | 42.20342 | -112.46399 | 11017 ft | 173 kts | 110° |
| 2026-05-04 12:51 | 42.19908 | -112.44893 | 11030 ft | 172 kts | 116° |
| 2026-05-04 12:51 | 42.19344 | -112.43465 | 11026 ft | 172 kts | 119° |
| 2026-05-04 12:51 | 42.18783 | -112.42046 | 11027 ft | 171 kts | 118° |
| 2026-05-04 12:51 | 42.18221 | -112.40624 | 11013 ft | 173 kts | 119° |
| 2026-05-04 12:52 | 42.17649 | -112.39214 | 11005 ft | 173 kts | 119° |
| 2026-05-04 12:52 | 42.17063 | -112.37771 | 11007 ft | 172 kts | 119° |
| 2026-05-04 12:52 | 42.16497 | -112.36378 | 11007 ft | 172 kts | 119° |
| 2026-05-04 12:52 | 42.15924 | -112.34966 | 11006 ft | 172 kts | 119° |
| 2026-05-04 12:53 | 42.15349 | -112.33550 | 11010 ft | 172 kts | 119° |
| 2026-05-04 12:53 | 42.14775 | -112.32137 | 11018 ft | 172 kts | 119° |
| 2026-05-04 12:53 | 42.14203 | -112.30723 | 11019 ft | 172 kts | 119° |
| 2026-05-04 12:53 | 42.13627 | -112.29303 | 11020 ft | 172 kts | 119° |
| 2026-05-04 12:54 | 42.13052 | -112.27887 | 11018 ft | 172 kts | 119° |
| 2026-05-04 12:54 | 42.12480 | -112.26471 | 11017 ft | 172 kts | 119° |
| 2026-05-04 12:54 | 42.11906 | -112.25055 | 11019 ft | 173 kts | 119° |
| 2026-05-04 12:54 | 42.11330 | -112.23634 | 11017 ft | 173 kts | 119° |
| 2026-05-04 12:55 | 42.10755 | -112.22213 | 11014 ft | 173 kts | 119° |
| 2026-05-04 12:55 | 42.10179 | -112.20788 | 11014 ft | 173 kts | 119° |
| 2026-05-04 12:55 | 42.09601 | -112.19364 | 11033 ft | 173 kts | 119° |
| 2026-05-04 12:55 | 42.09024 | -112.17945 | 11033 ft | 173 kts | 119° |
| 2026-05-04 12:56 | 42.08445 | -112.16519 | 11040 ft | 173 kts | 119° |
| 2026-05-04 12:56 | 42.07874 | -112.15109 | 11040 ft | 173 kts | 119° |
| 2026-05-04 12:56 | 42.07052 | -112.13971 | 11031 ft | 172 kts | 156° |
| 2026-05-04 12:56 | 42.05955 | -112.13363 | 11028 ft | 171 kts | 153° |
| 2026-05-04 12:57 | 42.04952 | -112.12433 | 10868 ft | 177 kts | 143° |
| 2026-05-04 12:57 | 42.03989 | -112.11380 | 10681 ft | 179 kts | 142° |
| 2026-05-04 12:57 | 42.03022 | -112.10340 | 10498 ft | 176 kts | 142° |
| 2026-05-04 12:57 | 42.02085 | -112.09340 | 10304 ft | 168 kts | 142° |
| 2026-05-04 12:58 | 42.01178 | -112.08373 | 10110 ft | 165 kts | 143° |
| 2026-05-04 12:58 | 42.00293 | -112.07436 | 9923 ft | 163 kts | 143° |
| 2026-05-04 12:58 | 41.99393 | -112.06482 | 9737 ft | 162 kts | 143° |
| 2026-05-04 12:58 | 41.98519 | -112.05556 | 9531 ft | 162 kts | 143° |
| 2026-05-04 12:59 | 41.97621 | -112.04610 | 9333 ft | 163 kts | 143° |
| 2026-05-04 12:59 | 41.96719 | -112.03660 | 9146 ft | 170 kts | 143° |
| 2026-05-04 12:59 | 41.95774 | -112.02669 | 8967 ft | 175 kts | 143° |
| 2026-05-04 12:59 | 41.94815 | -112.01658 | 8768 ft | 174 kts | 143° |
| 2026-05-04 13:00 | 41.93865 | -112.00652 | 8581 ft | 174 kts | 143° |
| 2026-05-04 13:00 | 41.92920 | -111.99652 | 8388 ft | 173 kts | 143° |
| 2026-05-04 13:00 | 41.91974 | -111.98652 | 8195 ft | 173 kts | 143° |
| 2026-05-04 13:00 | 41.91026 | -111.97654 | 8004 ft | 172 kts | 143° |
| 2026-05-04 13:01 | 41.90113 | -111.96694 | 7825 ft | 162 kts | 142° |
| 2026-05-04 13:01 | 41.89249 | -111.95775 | 7651 ft | 156 kts | 143° |
| 2026-05-04 13:01 | 41.88401 | -111.94878 | 7476 ft | 156 kts | 143° |
| 2026-05-04 13:01 | 41.87533 | -111.93968 | 7314 ft | 160 kts | 143° |
| 2026-05-04 13:02 | 41.86654 | -111.93052 | 7157 ft | 161 kts | 144° |
| 2026-05-04 13:02 | 41.85763 | -111.92148 | 6998 ft | 161 kts | 144° |
| 2026-05-04 13:02 | 41.84841 | -111.91309 | 6833 ft | 160 kts | 159° |
| 2026-05-04 13:02 | 41.83748 | -111.91087 | 6676 ft | 159 kts | 177° |
| 2026-05-04 13:03 | 41.82640 | -111.91039 | 6514 ft | 159 kts | 180° |
| 2026-05-04 13:03 | 41.81539 | -111.90985 | 6385 ft | 157 kts | 172° |
| 2026-05-04 13:03 | 41.80487 | -111.90851 | 6264 ft | 152 kts | 176° |
| 2026-05-04 13:03 | 41.79414 | -111.90785 | 6034 ft | 155 kts | 178° |
| 2026-05-04 13:04 | 41.78700 | -111.90763 | 5902 ft | 155 kts | 179° |
| 2026-05-04 13:04 | 41.77334 | -111.90736 | 5715 ft | 138 kts | 180° |
| 2026-05-04 13:04 | 41.76748 | -111.90724 | 5789 ft | 120 kts | 177° |
| 2026-05-04 13:04 | 41.75924 | -111.90703 | 5686 ft | 116 kts | 179° |
| 2026-05-04 13:05 | 41.74964 | -111.90368 | 5637 ft | 109 kts | 130° |
| 2026-05-04 13:05 | 41.74763 | -111.89446 | 5598 ft | 106 kts | 83° |
| 2026-05-04 13:05 | 41.74845 | -111.88490 | 5543 ft | 96 kts | 84° |
| 2026-05-04 13:05 | 41.74888 | -111.87605 | 5396 ft | 94 kts | 88° |
| 2026-05-04 13:06 | 41.74858 | -111.87013 | 5299 ft | 95 kts | 92° |
| 2026-05-04 13:06 | 41.74976 | -111.86183 | 5208 ft | 92 kts | 57° |
| 2026-05-04 13:06 | 41.75405 | -111.85570 | 5124 ft | 87 kts | 34° |
| 2026-05-04 13:06 | 41.75929 | -111.85228 | 5001 ft | 84 kts | 17° |
| 2026-05-04 13:07 | 41.76480 | -111.85021 | 4895 ft | 79 kts | 7° |
| 2026-05-04 13:07 | 41.76995 | -111.84993 | 4753 ft | 73 kts | 355° |
| 2026-05-04 13:07 | 41.77510 | -111.84951 | 4629 ft | 75 kts | 356° |
| 2026-05-04 13:07 | 41.78025 | -111.84926 | 4510 ft | 73 kts | 357° |
| 2026-05-04 13:08 | 41.78486 | -111.84899 | 4452 ft | 51 kts | 4° |
| 2026-05-04 13:08 | 41.78762 | -111.84883 | 4449 ft | 35 kts | 4° |
| 2026-05-04 13:08 | 41.78926 | -111.84904 | 4450 ft | 19 kts | 274° |
| 2026-05-04 13:08 | 41.78901 | -111.84986 | 4447 ft | 0 kts | 245° |
| 2026-05-04 13:09 | 41.78900 | -111.84988 | 4447 ft | 1 kts | 246° |
| 2026-05-04 13:09 | 41.78878 | -111.85016 | 4447 ft | 10 kts | 197° |
| 2026-05-04 13:09 | 41.78771 | -111.85043 | 4448 ft | 19 kts | 201° |
| 2026-05-04 13:10 | 41.78633 | -111.85146 | 4450 ft | 27 kts | 213° |
| 2026-05-04 13:10 | 41.78527 | -111.85236 | 4452 ft | 19 kts | 211° |
| 2026-05-04 13:10 | 41.78434 | -111.85314 | 4454 ft | 10 kts | 210° |
| 2026-05-04 13:10 | 41.78413 | -111.85330 | 4454 ft | 11 kts | 209° |
| 2026-05-04 13:11 | 41.78345 | -111.85294 | 4454 ft | 17 kts | 124° |
| 2026-05-04 13:11 | 41.78240 | -111.85226 | 4456 ft | 5 kts | 157° |
| 2026-05-04 13:11 | 41.78220 | -111.85241 | 4457 ft | 6 kts | 195° |
| 2026-05-04 13:11 | 41.78212 | -111.85238 | 4457 ft | 0 kts | 149° |